sensor_id;sensor_type;location;lat;lon;timestamp;pressure;altitude;pressure_sealevel;temperature;humidity
70072;BME280;57434;42.794;23.302;2022-12-29T00:00:53;96623.25;;;3.96;85.41
70072;BME280;57434;42.794;23.302;2022-12-29T00:01:55;96643.53;;;4.17;85.32
70072;BME280;57434;42.794;23.302;2022-12-29T00:02:57;96637.31;;;4.29;85.04
70072;BME280;57434;42.794;23.302;2022-12-29T00:03:59;96584.13;;;3.91;84.61
70072;BME280;57434;42.794;23.302;2022-12-29T00:05:02;96645.72;;;4.05;84.14
70072;BME280;57434;42.794;23.302;2022-12-29T00:06:03;96629.41;;;4.07;84.05
70072;BME280;57434;42.794;23.302;2022-12-29T00:07:06;96619.16;;;4.04;84.16
70072;BME280;57434;42.794;23.302;2022-12-29T00:08:08;96639.19;;;4.16;84.15
70072;BME280;57434;42.794;23.302;2022-12-29T00:09:14;96623.66;;;4.18;83.84
70072;BME280;57434;42.794;23.302;2022-12-29T00:10:16;96633.09;;;4.21;84.04
70072;BME280;57434;42.794;23.302;2022-12-29T00:11:22;96607.91;;;4.12;83.94
70072;BME280;57434;42.794;23.302;2022-12-29T00:12:24;96634.84;;;4.34;83.55
70072;BME280;57434;42.794;23.302;2022-12-29T00:13:26;96634.75;;;4.38;83.14
70072;BME280;57434;42.794;23.302;2022-12-29T00:14:28;96674.75;;;4.44;82.57
70072;BME280;57434;42.794;23.302;2022-12-29T00:15:30;96632.28;;;4.43;81.93
70072;BME280;57434;42.794;23.302;2022-12-29T00:16:33;96647.44;;;4.39;81.21
70072;BME280;57434;42.794;23.302;2022-12-29T00:17:36;96646.00;;;4.51;80.72
70072;BME280;57434;42.794;23.302;2022-12-29T00:18:37;96653.84;;;4.56;80.53
70072;BME280;57434;42.794;23.302;2022-12-29T00:19:39;96631.84;;;4.45;80.37
70072;BME280;57434;42.794;23.302;2022-12-29T00:20:41;96654.41;;;4.47;80.70
70072;BME280;57434;42.794;23.302;2022-12-29T00:21:43;96653.56;;;4.50;80.65
70072;BME280;57434;42.794;23.302;2022-12-29T00:22:45;96669.53;;;4.46;80.77
70072;BME280;57434;42.794;23.302;2022-12-29T00:23:47;96645.44;;;4.39;80.74
70072;BME280;57434;42.794;23.302;2022-12-29T00:24:49;96665.53;;;4.47;80.46
70072;BME280;57434;42.794;23.302;2022-12-29T00:25:51;96660.75;;;4.48;80.54
70072;BME280;57434;42.794;23.302;2022-12-29T00:28:04;96649.56;;;4.12;80.94
70072;BME280;57434;42.794;23.302;2022-12-29T00:29:08;96643.47;;;3.97;81.48
70072;BME280;57434;42.794;23.302;2022-12-29T00:30:12;96522.69;;;3.26;81.46
70072;BME280;57434;42.794;23.302;2022-12-29T00:31:14;96608.03;;;3.85;81.58
70072;BME280;57434;42.794;23.302;2022-12-29T00:32:18;96672.88;;;4.18;81.63
70072;BME280;57434;42.794;23.302;2022-12-29T00:33:21;96520.56;;;3.33;81.70
70072;BME280;57434;42.794;23.302;2022-12-29T00:34:23;96653.97;;;4.09;82.07
70072;BME280;57434;42.794;23.302;2022-12-29T00:35:37;96668.09;;;4.18;82.09
70072;BME280;57434;42.794;23.302;2022-12-29T00:36:42;96666.00;;;4.22;82.07
70072;BME280;57434;42.794;23.302;2022-12-29T00:37:46;96673.44;;;4.29;81.92
70072;BME280;57434;42.794;23.302;2022-12-29T00:38:57;96657.25;;;4.24;81.77
70072;BME280;57434;42.794;23.302;2022-12-29T00:40:00;96610.03;;;3.84;81.95
70072;BME280;57434;42.794;23.302;2022-12-29T00:41:02;96669.44;;;4.30;81.95
70072;BME280;57434;42.794;23.302;2022-12-29T00:42:05;96683.19;;;4.17;82.03
70072;BME280;57434;42.794;23.302;2022-12-29T00:43:08;96670.72;;;4.25;82.23
70072;BME280;57434;42.794;23.302;2022-12-29T00:44:11;96380.72;;;2.48;81.82
70072;BME280;57434;42.794;23.302;2022-12-29T00:45:13;96651.91;;;4.13;82.16
70072;BME280;57434;42.794;23.302;2022-12-29T00:46:14;96665.94;;;4.26;82.28
70072;BME280;57434;42.794;23.302;2022-12-29T00:47:20;96663.31;;;4.19;82.32
70072;BME280;57434;42.794;23.302;2022-12-29T00:48:22;96657.19;;;4.07;82.43
70072;BME280;57434;42.794;23.302;2022-12-29T00:49:24;96671.84;;;4.08;83.00
70072;BME280;57434;42.794;23.302;2022-12-29T00:50:26;96674.81;;;3.97;83.41
70072;BME280;57434;42.794;23.302;2022-12-29T00:51:28;96538.06;;;3.07;83.87
70072;BME280;57434;42.794;23.302;2022-12-29T00:52:30;96664.44;;;3.78;83.86
70072;BME280;57434;42.794;23.302;2022-12-29T00:53:32;96672.09;;;3.94;83.56
70072;BME280;57434;42.794;23.302;2022-12-29T00:54:39;96675.75;;;3.91;83.71
70072;BME280;57434;42.794;23.302;2022-12-29T00:55:41;96670.25;;;3.87;84.05
70072;BME280;57434;42.794;23.302;2022-12-29T00:56:46;96672.75;;;4.01;83.80
70072;BME280;57434;42.794;23.302;2022-12-29T00:57:49;96580.59;;;3.43;83.79
70072;BME280;57434;42.794;23.302;2022-12-29T00:58:50;96674.63;;;4.08;83.55
70072;BME280;57434;42.794;23.302;2022-12-29T00:59:52;96667.44;;;4.10;83.30
70072;BME280;57434;42.794;23.302;2022-12-29T01:01:05;96664.38;;;4.05;83.42
70072;BME280;57434;42.794;23.302;2022-12-29T01:02:09;96666.84;;;3.99;83.78
70072;BME280;57434;42.794;23.302;2022-12-29T01:03:11;96641.38;;;3.61;84.05
70072;BME280;57434;42.794;23.302;2022-12-29T01:04:14;96658.31;;;3.90;83.90
70072;BME280;57434;42.794;23.302;2022-12-29T01:05:16;96679.56;;;3.97;84.09
70072;BME280;57434;42.794;23.302;2022-12-29T01:06:18;96659.63;;;3.82;84.19
70072;BME280;57434;42.794;23.302;2022-12-29T01:07:20;96656.00;;;3.85;84.24
70072;BME280;57434;42.794;23.302;2022-12-29T01:08:22;96668.19;;;3.91;84.16
70072;BME280;57434;42.794;23.302;2022-12-29T01:09:24;96517.84;;;2.83;84.36
70072;BME280;57434;42.794;23.302;2022-12-29T01:10:26;96657.69;;;3.56;84.57
70072;BME280;57434;42.794;23.302;2022-12-29T01:11:28;96648.13;;;3.60;84.70
70072;BME280;57434;42.794;23.302;2022-12-29T01:12:33;96506.91;;;2.76;84.74
70072;BME280;57434;42.794;23.302;2022-12-29T01:13:35;96654.25;;;3.71;85.15
70072;BME280;57434;42.794;23.302;2022-12-29T01:14:38;96349.75;;;1.80;84.89
70072;BME280;57434;42.794;23.302;2022-12-29T01:15:40;96646.75;;;3.68;85.08
70072;BME280;57434;42.794;23.302;2022-12-29T01:16:42;96651.94;;;3.66;85.24
70072;BME280;57434;42.794;23.302;2022-12-29T01:17:44;96660.22;;;3.70;85.57
70072;BME280;57434;42.794;23.302;2022-12-29T01:18:46;96659.59;;;3.62;85.66
70072;BME280;57434;42.794;23.302;2022-12-29T01:19:48;96624.78;;;3.34;85.83
70072;BME280;57434;42.794;23.302;2022-12-29T01:20:50;96654.09;;;3.59;86.14
70072;BME280;57434;42.794;23.302;2022-12-29T01:21:52;96647.34;;;3.60;85.87
70072;BME280;57434;42.794;23.302;2022-12-29T01:22:54;96644.66;;;3.53;86.04
70072;BME280;57434;42.794;23.302;2022-12-29T01:23:56;96640.75;;;3.50;86.11
70072;BME280;57434;42.794;23.302;2022-12-29T01:24:58;96651.78;;;3.54;86.07
70072;BME280;57434;42.794;23.302;2022-12-29T01:26:10;96646.84;;;3.65;85.70
70072;BME280;57434;42.794;23.302;2022-12-29T01:27:12;96523.75;;;2.85;85.45
70072;BME280;57434;42.794;23.302;2022-12-29T01:28:14;96627.34;;;3.68;85.47
70072;BME280;57434;42.794;23.302;2022-12-29T01:29:21;96640.31;;;3.75;85.96
70072;BME280;57434;42.794;23.302;2022-12-29T01:30:23;96620.47;;;3.53;85.51
70072;BME280;57434;42.794;23.302;2022-12-29T01:31:25;96641.94;;;3.72;85.58
70072;BME280;57434;42.794;23.302;2022-12-29T01:32:27;96628.53;;;3.67;85.28
70072;BME280;57434;42.794;23.302;2022-12-29T01:33:28;96618.91;;;3.75;84.95
70072;BME280;57434;42.794;23.302;2022-12-29T01:34:30;96627.41;;;3.88;84.53
70072;BME280;57434;42.794;23.302;2022-12-29T01:35:32;96594.34;;;3.74;84.24
70072;BME280;57434;42.794;23.302;2022-12-29T01:36:34;96644.00;;;4.12;84.13
70072;BME280;57434;42.794;23.302;2022-12-29T01:37:36;96629.09;;;4.02;83.95
70072;BME280;57434;42.794;23.302;2022-12-29T01:38:38;96639.06;;;3.99;83.86
70072;BME280;57434;42.794;23.302;2022-12-29T01:39:40;96630.72;;;3.80;84.33
70072;BME280;57434;42.794;23.302;2022-12-29T01:40:46;96622.28;;;3.87;84.15
70072;BME280;57434;42.794;23.302;2022-12-29T01:41:48;96576.44;;;3.55;84.21
70072;BME280;57434;42.794;23.302;2022-12-29T01:42:50;96615.94;;;3.86;83.81
70072;BME280;57434;42.794;23.302;2022-12-29T01:43:54;96557.84;;;3.32;83.57
70072;BME280;57434;42.794;23.302;2022-12-29T01:45:00;96473.69;;;2.96;83.34
70072;BME280;57434;42.794;23.302;2022-12-29T01:46:03;96622.75;;;3.82;83.78
70072;BME280;57434;42.794;23.302;2022-12-29T01:47:06;96624.03;;;3.77;84.16
70072;BME280;57434;42.794;23.302;2022-12-29T01:48:10;96633.91;;;3.78;84.17
70072;BME280;57434;42.794;23.302;2022-12-29T01:49:19;96632.78;;;3.75;84.43
70072;BME280;57434;42.794;23.302;2022-12-29T01:50:50;96627.66;;;3.74;84.77
70072;BME280;57434;42.794;23.302;2022-12-29T01:51:58;96619.94;;;3.62;84.88
70072;BME280;57434;42.794;23.302;2022-12-29T01:53:16;96671.38;;;3.66;85.12
70072;BME280;57434;42.794;23.302;2022-12-29T01:54:35;96642.31;;;3.51;85.26
70072;BME280;57434;42.794;23.302;2022-12-29T01:55:46;96614.75;;;3.40;85.45
70072;BME280;57434;42.794;23.302;2022-12-29T01:56:51;96628.06;;;3.49;85.63
70072;BME280;57434;42.794;23.302;2022-12-29T01:57:55;96628.53;;;3.67;85.59
70072;BME280;57434;42.794;23.302;2022-12-29T01:59:06;96608.25;;;3.51;85.54
70072;BME280;57434;42.794;23.302;2022-12-29T02:00:13;96619.59;;;3.60;85.64
70072;BME280;57434;42.794;23.302;2022-12-29T02:01:16;96470.13;;;2.49;85.72
70072;BME280;57434;42.794;23.302;2022-12-29T02:02:21;96617.72;;;3.53;86.03
70072;BME280;57434;42.794;23.302;2022-12-29T02:03:25;96502.00;;;2.84;86.07
70072;BME280;57434;42.794;23.302;2022-12-29T02:04:30;96611.69;;;3.58;86.20
70072;BME280;57434;42.794;23.302;2022-12-29T02:06:57;96575.69;;;3.31;86.54
70072;BME280;57434;42.794;23.302;2022-12-29T02:08:02;96620.91;;;3.52;86.64
70072;BME280;57434;42.794;23.302;2022-12-29T02:09:04;96605.94;;;3.46;86.53
70072;BME280;57434;42.794;23.302;2022-12-29T02:10:06;96616.13;;;3.52;86.80
70072;BME280;57434;42.794;23.302;2022-12-29T02:11:08;96611.13;;;3.43;86.69
70072;BME280;57434;42.794;23.302;2022-12-29T02:12:10;96616.97;;;3.49;86.79
70072;BME280;57434;42.794;23.302;2022-12-29T02:13:15;96575.06;;;3.20;86.96
70072;BME280;57434;42.794;23.302;2022-12-29T02:14:18;96575.44;;;3.22;87.17
70072;BME280;57434;42.794;23.302;2022-12-29T02:15:40;96613.06;;;3.47;87.08
70072;BME280;57434;42.794;23.302;2022-12-29T02:33:55;96611.50;;;3.46;86.67
70072;BME280;57434;42.794;23.302;2022-12-29T02:38:59;96641.41;;;3.58;86.37
70072;BME280;57434;42.794;23.302;2022-12-29T02:40:57;96626.34;;;3.59;86.33
70072;BME280;57434;42.794;23.302;2022-12-29T02:43:10;96485.19;;;2.71;86.38
70072;BME280;57434;42.794;23.302;2022-12-29T02:44:29;96452.25;;;2.53;86.19
70072;BME280;57434;42.794;23.302;2022-12-29T02:45:43;96629.59;;;3.54;86.26
70072;BME280;57434;42.794;23.302;2022-12-29T02:48:41;96463.81;;;2.48;85.87
70072;BME280;57434;42.794;23.302;2022-12-29T02:49:57;96625.97;;;3.57;86.10
70072;BME280;57434;42.794;23.302;2022-12-29T02:51:08;96611.25;;;3.60;86.04
70072;BME280;57434;42.794;23.302;2022-12-29T02:52:19;96611.09;;;3.67;86.15
70072;BME280;57434;42.794;23.302;2022-12-29T02:53:23;96603.16;;;3.69;86.14
70072;BME280;57434;42.794;23.302;2022-12-29T02:54:26;96622.34;;;3.83;85.85
70072;BME280;57434;42.794;23.302;2022-12-29T02:55:28;96590.47;;;3.68;84.88
70072;BME280;57434;42.794;23.302;2022-12-29T02:56:30;96486.94;;;2.85;85.08
70072;BME280;57434;42.794;23.302;2022-12-29T02:57:34;96610.16;;;3.77;85.15
70072;BME280;57434;42.794;23.302;2022-12-29T02:58:36;96606.53;;;3.80;85.20
70072;BME280;57434;42.794;23.302;2022-12-29T02:59:38;96451.16;;;2.70;85.17
70072;BME280;57434;42.794;23.302;2022-12-29T03:02:19;96440.97;;;2.64;85.23
70072;BME280;57434;42.794;23.302;2022-12-29T03:03:36;96469.09;;;2.86;85.42
70072;BME280;57434;42.794;23.302;2022-12-29T03:04:55;96588.91;;;3.67;85.54
70072;BME280;57434;42.794;23.302;2022-12-29T03:08:53;96614.59;;;3.71;85.03
70072;BME280;57434;42.794;23.302;2022-12-29T03:11:12;96592.22;;;3.82;85.09
70072;BME280;57434;42.794;23.302;2022-12-29T03:13:47;96618.09;;;3.75;83.88
70072;BME280;57434;42.794;23.302;2022-12-29T03:15:02;96591.91;;;3.76;83.92
70072;BME280;57434;42.794;23.302;2022-12-29T03:16:21;96573.25;;;3.57;84.73
70072;BME280;57434;42.794;23.302;2022-12-29T03:17:29;96411.13;;;2.52;84.94
70072;BME280;57434;42.794;23.302;2022-12-29T03:18:51;96595.03;;;3.58;85.69
70072;BME280;57434;42.794;23.302;2022-12-29T03:20:01;96578.63;;;3.44;85.77
70072;BME280;57434;42.794;23.302;2022-12-29T03:21:09;96594.97;;;3.38;86.01
70072;BME280;57434;42.794;23.302;2022-12-29T03:22:21;96573.38;;;3.26;86.30
70072;BME280;57434;42.794;23.302;2022-12-29T03:23:27;96585.00;;;3.41;86.34
70072;BME280;57434;42.794;23.302;2022-12-29T03:24:33;96591.28;;;3.45;86.24
70072;BME280;57434;42.794;23.302;2022-12-29T03:25:40;96509.06;;;2.88;86.63
70072;BME280;57434;42.794;23.302;2022-12-29T03:26:45;96573.03;;;3.24;86.87
70072;BME280;57434;42.794;23.302;2022-12-29T03:27:53;96582.38;;;3.34;86.62
70072;BME280;57434;42.794;23.302;2022-12-29T03:28:57;96594.16;;;3.38;86.61
70072;BME280;57434;42.794;23.302;2022-12-29T03:30:02;96581.75;;;3.23;86.62
70072;BME280;57434;42.794;23.302;2022-12-29T03:31:07;96603.22;;;3.19;86.72
70072;BME280;57434;42.794;23.302;2022-12-29T03:32:12;96454.03;;;2.40;86.40
70072;BME280;57434;42.794;23.302;2022-12-29T03:33:18;96549.75;;;2.95;85.82
70072;BME280;57434;42.794;23.302;2022-12-29T03:34:24;96600.13;;;3.13;85.79
70072;BME280;57434;42.794;23.302;2022-12-29T03:35:30;96577.00;;;3.23;85.73
70072;BME280;57434;42.794;23.302;2022-12-29T03:36:42;96578.50;;;3.28;85.31
70072;BME280;57434;42.794;23.302;2022-12-29T03:38:10;96586.41;;;3.29;84.81
70072;BME280;57434;42.794;23.302;2022-12-29T03:39:13;96422.81;;;2.13;85.03
70072;BME280;57434;42.794;23.302;2022-12-29T03:40:16;96592.91;;;3.19;84.97
70072;BME280;57434;42.794;23.302;2022-12-29T03:41:24;96588.50;;;3.22;84.99
70072;BME280;57434;42.794;23.302;2022-12-29T03:42:30;96597.38;;;3.13;85.06
70072;BME280;57434;42.794;23.302;2022-12-29T03:43:35;96588.44;;;3.02;85.42
70072;BME280;57434;42.794;23.302;2022-12-29T03:44:39;96612.25;;;2.99;85.52
70072;BME280;57434;42.794;23.302;2022-12-29T03:45:41;96598.03;;;2.97;85.60
70072;BME280;57434;42.794;23.302;2022-12-29T03:46:43;96607.16;;;2.94;85.67
70072;BME280;57434;42.794;23.302;2022-12-29T03:47:46;96616.53;;;2.77;85.79
70072;BME280;57434;42.794;23.302;2022-12-29T03:48:47;96599.63;;;2.95;85.86
70072;BME280;57434;42.794;23.302;2022-12-29T03:49:49;96586.38;;;2.83;85.46
70072;BME280;57434;42.794;23.302;2022-12-29T03:50:51;96608.63;;;3.02;85.45
70072;BME280;57434;42.794;23.302;2022-12-29T03:51:53;96495.84;;;2.22;85.53
70072;BME280;57434;42.794;23.302;2022-12-29T03:52:55;96589.81;;;2.90;85.69
70072;BME280;57434;42.794;23.302;2022-12-29T03:53:57;96617.00;;;2.99;85.76
70072;BME280;57434;42.794;23.302;2022-12-29T03:54:58;96609.88;;;2.98;85.53
70072;BME280;57434;42.794;23.302;2022-12-29T03:56:00;96611.94;;;2.94;85.72
70072;BME280;57434;42.794;23.302;2022-12-29T03:57:02;96623.28;;;2.76;85.96
70072;BME280;57434;42.794;23.302;2022-12-29T03:58:04;96466.00;;;1.76;85.74
70072;BME280;57434;42.794;23.302;2022-12-29T03:59:05;96613.31;;;2.82;85.82
70072;BME280;57434;42.794;23.302;2022-12-29T04:00:08;96603.28;;;2.61;86.01
70072;BME280;57434;42.794;23.302;2022-12-29T04:01:10;96628.28;;;2.85;86.34
70072;BME280;57434;42.794;23.302;2022-12-29T04:02:12;96622.31;;;2.86;86.02
70072;BME280;57434;42.794;23.302;2022-12-29T04:03:15;96616.53;;;2.77;86.08
70072;BME280;57434;42.794;23.302;2022-12-29T04:04:18;96616.59;;;2.73;85.83
70072;BME280;57434;42.794;23.302;2022-12-29T04:05:20;96598.94;;;2.60;85.95
70072;BME280;57434;42.794;23.302;2022-12-29T04:06:22;96611.88;;;2.70;86.12
70072;BME280;57434;42.794;23.302;2022-12-29T04:07:24;96611.88;;;2.70;86.22
70072;BME280;57434;42.794;23.302;2022-12-29T04:08:25;96600.19;;;2.56;86.18
70072;BME280;57434;42.794;23.302;2022-12-29T04:09:27;96458.59;;;1.69;86.24
70072;BME280;57434;42.794;23.302;2022-12-29T04:10:29;96603.19;;;2.68;86.40
70072;BME280;57434;42.794;23.302;2022-12-29T04:11:31;96585.25;;;2.50;86.31
70072;BME280;57434;42.794;23.302;2022-12-29T04:12:35;96602.63;;;2.54;86.38
70072;BME280;57434;42.794;23.302;2022-12-29T04:13:37;96607.63;;;2.62;86.74
70072;BME280;57434;42.794;23.302;2022-12-29T04:14:38;96602.28;;;2.48;86.91
70072;BME280;57434;42.794;23.302;2022-12-29T04:15:40;96606.47;;;2.60;86.77
70072;BME280;57434;42.794;23.302;2022-12-29T04:16:42;96534.84;;;2.01;86.66
70072;BME280;57434;42.794;23.302;2022-12-29T04:17:43;96576.34;;;2.35;86.63
70072;BME280;57434;42.794;23.302;2022-12-29T04:18:45;96608.16;;;2.54;86.69
70072;BME280;57434;42.794;23.302;2022-12-29T04:19:47;96616.81;;;2.56;86.78
70072;BME280;57434;42.794;23.302;2022-12-29T04:20:49;96608.56;;;2.52;86.83
70072;BME280;57434;42.794;23.302;2022-12-29T04:21:50;96593.75;;;2.35;86.92
70072;BME280;57434;42.794;23.302;2022-12-29T04:23:00;96606.72;;;2.42;86.97
70072;BME280;57434;42.794;23.302;2022-12-29T04:24:02;96625.75;;;2.40;86.91
70072;BME280;57434;42.794;23.302;2022-12-29T04:25:04;96619.78;;;2.42;86.81
70072;BME280;57434;42.794;23.302;2022-12-29T04:26:06;96598.63;;;2.28;86.57
70072;BME280;57434;42.794;23.302;2022-12-29T04:27:09;96528.47;;;1.73;86.54
70072;BME280;57434;42.794;23.302;2022-12-29T04:28:10;96606.59;;;2.22;86.57
70072;BME280;57434;42.794;23.302;2022-12-29T04:29:12;96617.75;;;2.15;86.25
70072;BME280;57434;42.794;23.302;2022-12-29T04:30:14;96500.28;;;1.52;86.28
70072;BME280;57434;42.794;23.302;2022-12-29T04:31:18;96610.50;;;2.25;86.57
70072;BME280;57434;42.794;23.302;2022-12-29T04:32:20;96600.75;;;2.13;86.72
70072;BME280;57434;42.794;23.302;2022-12-29T04:33:22;96455.69;;;1.16;86.72
70072;BME280;57434;42.794;23.302;2022-12-29T04:34:24;96624.34;;;2.25;86.95
70072;BME280;57434;42.794;23.302;2022-12-29T04:35:26;96630.69;;;2.25;87.08
70072;BME280;57434;42.794;23.302;2022-12-29T04:36:27;96627.13;;;2.25;87.42
70072;BME280;57434;42.794;23.302;2022-12-29T04:37:30;96616.97;;;2.15;87.29
70072;BME280;57434;42.794;23.302;2022-12-29T04:38:32;96619.66;;;2.22;87.42
70072;BME280;57434;42.794;23.302;2022-12-29T04:39:34;96630.59;;;2.29;87.21
70072;BME280;57434;42.794;23.302;2022-12-29T04:40:38;96602.28;;;2.18;87.23
70072;BME280;57434;42.794;23.302;2022-12-29T04:41:40;96450.38;;;1.28;87.15
70072;BME280;57434;42.794;23.302;2022-12-29T04:42:41;96634.75;;;2.48;87.00
70072;BME280;57434;42.794;23.302;2022-12-29T04:43:43;96595.56;;;2.19;86.61
70072;BME280;57434;42.794;23.302;2022-12-29T04:44:45;96641.25;;;2.64;86.47
70072;BME280;57434;42.794;23.302;2022-12-29T04:45:47;96551.44;;;2.04;86.36
70072;BME280;57434;42.794;23.302;2022-12-29T04:46:49;96610.31;;;2.39;86.81
70072;BME280;57434;42.794;23.302;2022-12-29T04:47:51;96639.72;;;2.60;86.66
70072;BME280;57434;42.794;23.302;2022-12-29T04:48:53;96640.91;;;2.59;86.87
70072;BME280;57434;42.794;23.302;2022-12-29T04:49:55;96634.28;;;2.53;87.12
70072;BME280;57434;42.794;23.302;2022-12-29T04:50:57;96641.34;;;2.57;87.25
70072;BME280;57434;42.794;23.302;2022-12-29T04:51:59;96633.03;;;2.57;87.36
70072;BME280;57434;42.794;23.302;2022-12-29T04:53:00;96634.91;;;2.64;87.30
70072;BME280;57434;42.794;23.302;2022-12-29T04:54:02;96642.00;;;2.68;87.23
70072;BME280;57434;42.794;23.302;2022-12-29T04:55:05;96547.03;;;2.07;87.13
70072;BME280;57434;42.794;23.302;2022-12-29T04:56:08;96575.00;;;2.16;87.04
70072;BME280;57434;42.794;23.302;2022-12-29T04:57:10;96645.13;;;2.70;87.02
70072;BME280;57434;42.794;23.302;2022-12-29T04:58:12;96650.28;;;2.68;87.21
70072;BME280;57434;42.794;23.302;2022-12-29T04:59:22;96596.19;;;2.30;87.04
70072;BME280;57434;42.794;23.302;2022-12-29T05:00:24;96627.84;;;2.59;86.90
70072;BME280;57434;42.794;23.302;2022-12-29T05:01:26;96648.88;;;2.84;86.96
70072;BME280;57434;42.794;23.302;2022-12-29T05:02:28;96591.75;;;2.36;86.92
70072;BME280;57434;42.794;23.302;2022-12-29T05:03:30;96668.88;;;2.71;86.91
70072;BME280;57434;42.794;23.302;2022-12-29T05:04:32;96654.50;;;2.80;86.65
70072;BME280;57434;42.794;23.302;2022-12-29T05:05:34;96639.59;;;2.70;86.55
70072;BME280;57434;42.794;23.302;2022-12-29T05:06:35;96650.38;;;2.92;86.35
70072;BME280;57434;42.794;23.302;2022-12-29T05:07:37;96633.91;;;2.81;86.31
70072;BME280;57434;42.794;23.302;2022-12-29T05:08:39;96465.13;;;1.83;86.10
70072;BME280;57434;42.794;23.302;2022-12-29T05:09:41;96656.09;;;3.08;86.28
70072;BME280;57434;42.794;23.302;2022-12-29T05:10:46;96463.47;;;1.89;86.00
70072;BME280;57434;42.794;23.302;2022-12-29T05:11:48;96643.94;;;2.98;85.87
70072;BME280;57434;42.794;23.302;2022-12-29T05:12:50;96660.09;;;3.03;85.81
70072;BME280;57434;42.794;23.302;2022-12-29T05:13:52;96649.06;;;3.00;85.60
70072;BME280;57434;42.794;23.302;2022-12-29T05:14:53;96638.03;;;2.96;85.56
70072;BME280;57434;42.794;23.302;2022-12-29T05:15:55;96656.44;;;3.10;85.59
70072;BME280;57434;42.794;23.302;2022-12-29T05:18:36;96656.44;;;3.10;85.59
70072;BME280;57434;42.794;23.302;2022-12-29T05:19:38;96643.47;;;3.03;85.65
70072;BME280;57434;42.794;23.302;2022-12-29T05:20:40;96636.41;;;2.99;85.57
70072;BME280;57434;42.794;23.302;2022-12-29T05:21:42;96653.34;;;3.04;85.76
70072;BME280;57434;42.794;23.302;2022-12-29T05:22:44;96637.56;;;3.01;85.56
70072;BME280;57434;42.794;23.302;2022-12-29T05:23:46;96654.75;;;3.16;85.54
70072;BME280;57434;42.794;23.302;2022-12-29T05:24:48;96632.63;;;2.86;85.65
70072;BME280;57434;42.794;23.302;2022-12-29T05:25:49;96637.16;;;3.03;85.56
70072;BME280;57434;42.794;23.302;2022-12-29T05:26:51;96635.09;;;3.07;85.16
70072;BME280;57434;42.794;23.302;2022-12-29T05:27:53;96634.78;;;3.01;85.38
70072;BME280;57434;42.794;23.302;2022-12-29T05:28:54;96683.13;;;3.00;85.19
70072;BME280;57434;42.794;23.302;2022-12-29T05:29:56;96644.22;;;2.81;85.59
70072;BME280;57434;42.794;23.302;2022-12-29T05:30:58;96655.53;;;2.90;85.66
70072;BME280;57434;42.794;23.302;2022-12-29T05:32:00;96421.03;;;1.42;85.52
70072;BME280;57434;42.794;23.302;2022-12-29T05:33:02;96659.56;;;2.85;86.33
70072;BME280;57434;42.794;23.302;2022-12-29T05:34:04;96637.97;;;2.73;86.69
70072;BME280;57434;42.794;23.302;2022-12-29T05:35:06;96661.53;;;2.85;86.43
70072;BME280;57434;42.794;23.302;2022-12-29T05:36:09;96679.53;;;3.03;86.38
70072;BME280;57434;42.794;23.302;2022-12-29T05:37:11;96635.31;;;2.93;86.18
70072;BME280;57434;42.794;23.302;2022-12-29T05:38:13;96657.22;;;3.11;85.91
70072;BME280;57434;42.794;23.302;2022-12-29T05:39:14;96668.00;;;3.05;85.99
70072;BME280;57434;42.794;23.302;2022-12-29T05:40:16;96661.25;;;3.06;85.69
70072;BME280;57434;42.794;23.302;2022-12-29T05:41:19;96668.84;;;3.02;85.71
70072;BME280;57434;42.794;23.302;2022-12-29T05:42:20;96655.34;;;3.04;85.51
70072;BME280;57434;42.794;23.302;2022-12-29T05:43:22;96658.13;;;3.04;85.61
70072;BME280;57434;42.794;23.302;2022-12-29T05:44:24;96658.13;;;3.04;85.66
70072;BME280;57434;42.794;23.302;2022-12-29T05:45:26;96501.31;;;1.99;85.48
70072;BME280;57434;42.794;23.302;2022-12-29T05:46:27;96645.97;;;2.94;85.60
70072;BME280;57434;42.794;23.302;2022-12-29T05:47:29;96658.50;;;3.06;85.50
70072;BME280;57434;42.794;23.302;2022-12-29T05:48:31;96660.06;;;3.07;85.67
70072;BME280;57434;42.794;23.302;2022-12-29T05:49:38;96655.81;;;2.99;85.90
70072;BME280;57434;42.794;23.302;2022-12-29T05:50:40;96653.81;;;2.99;86.06
70072;BME280;57434;42.794;23.302;2022-12-29T05:53:21;96640.28;;;2.78;86.23
70072;BME280;57434;42.794;23.302;2022-12-29T05:54:23;96565.81;;;2.26;86.50
70072;BME280;57434;42.794;23.302;2022-12-29T05:55:25;96652.44;;;2.84;86.65
70072;BME280;57434;42.794;23.302;2022-12-29T05:56:26;96642.72;;;2.72;86.71
70072;BME280;57434;42.794;23.302;2022-12-29T05:57:28;96631.59;;;2.76;86.61
70072;BME280;57434;42.794;23.302;2022-12-29T05:58:30;96661.44;;;2.92;86.41
70072;BME280;57434;42.794;23.302;2022-12-29T05:59:32;96663.28;;;3.02;86.52
70072;BME280;57434;42.794;23.302;2022-12-29T06:00:33;96652.78;;;2.90;86.58
70072;BME280;57434;42.794;23.302;2022-12-29T06:01:35;96639.44;;;2.81;86.47
70072;BME280;57434;42.794;23.302;2022-12-29T06:02:37;96652.72;;;2.93;86.57
70072;BME280;57434;42.794;23.302;2022-12-29T06:03:39;96684.22;;;3.06;86.42
70072;BME280;57434;42.794;23.302;2022-12-29T06:04:48;96625.19;;;2.83;86.14
70072;BME280;57434;42.794;23.302;2022-12-29T06:05:50;96676.56;;;3.14;86.24
70072;BME280;57434;42.794;23.302;2022-12-29T06:06:52;96680.63;;;3.10;86.11
70072;BME280;57434;42.794;23.302;2022-12-29T06:07:54;96670.38;;;3.06;86.00
70072;BME280;57434;42.794;23.302;2022-12-29T06:08:55;96491.47;;;1.94;85.91
70072;BME280;57434;42.794;23.302;2022-12-29T06:09:57;96658.50;;;3.06;86.12
70072;BME280;57434;42.794;23.302;2022-12-29T06:10:59;96679.09;;;3.05;86.10
70072;BME280;57434;42.794;23.302;2022-12-29T06:12:01;96665.06;;;3.16;86.02
70072;BME280;57434;42.794;23.302;2022-12-29T06:13:02;96683.28;;;3.17;85.76
70072;BME280;57434;42.794;23.302;2022-12-29T06:14:04;96585.69;;;2.48;85.37
70072;BME280;57434;42.794;23.302;2022-12-29T06:15:06;96600.09;;;2.63;85.23
70072;BME280;57434;42.794;23.302;2022-12-29T06:16:08;96664.09;;;3.02;85.27